Time;durP1;ratioP1;P1;durP2;ratioP2;P2;SDS_P1;SDS_P2;PMS_P1;PMS_P2;Temp;Humidity;BMP_temperature;BMP_pressure;BME280_temperature;BME280_humidity;BME280_pressure;Samples;Min_cycle;Max_cycle;Signal;HPM_P1;HPM_P2
2023/09/12 00:01:05;;;;;;;15.90;7.90;;;18.40;99.90;;;;;;5045444;28;20045;-64
2023/09/12 00:03:31;;;;;;;12.70;7.80;;;18.40;99.90;;;;;;5062977;28;20056;-65
2023/09/12 00:05:57;;;;;;;;;;;18.40;99.90;;;;;;5061065;28;20063;-64
2023/09/12 00:08:23;;;;;;;8.95;6.35;;;18.40;99.90;;;;;;5061048;28;19940;-64
2023/09/12 00:11:13;;;;;;;18.08;7.32;;;18.30;99.90;;;;;;5058380;28;20052;-65
2023/09/12 00:13:40;;;;;;;14.30;7.63;;;18.30;99.90;;;;;;5061462;28;20041;-65
2023/09/12 00:16:06;;;;;;;17.50;8.63;;;18.30;99.90;;;;;;5060863;28;20056;-63
2023/09/12 00:18:34;;;;;;;14.90;7.55;;;18.30;99.90;;;;;;5049755;28;20187;-65
2023/09/12 00:21:00;;;;;;;18.50;7.43;;;18.30;99.90;;;;;;5045271;28;20475;-64
2023/09/12 00:24:06;;;;;;;18.80;8.93;;;18.30;99.90;;;;;;5049222;28;20603;-65
2023/09/12 00:26:33;;;;;;;17.15;8.10;;;18.20;99.90;;;;;;5054265;28;20106;-63
2023/09/12 00:28:58;;;;;;;14.63;8.80;;;18.20;99.90;;;;;;5048093;28;20049;-65
2023/09/12 00:31:24;;;;;;;;;;;18.30;99.90;;;;;;5045233;28;20037;-65
2023/09/12 00:33:49;;;;;;;14.25;7.53;;;18.20;99.90;;;;;;5048287;28;20011;-65
2023/09/12 00:36:15;;;;;;;16.90;8.55;;;18.30;99.90;;;;;;5047885;28;20045;-65
2023/09/12 00:38:41;;;;;;;18.63;8.98;;;18.20;99.90;;;;;;5048184;28;20040;-64
2023/09/12 00:41:06;;;;;;;;;;;18.20;99.90;;;;;;5055131;28;20037;-66
2023/09/12 00:43:32;;;;;;;14.23;7.00;;;18.20;99.90;;;;;;5048141;28;19936;-65
2023/09/12 00:45:57;;;;;;;;;;;18.20;99.90;;;;;;5045794;28;20052;-69
2023/09/12 00:48:23;;;;;;;16.40;7.68;;;18.10;99.90;;;;;;5046978;28;19967;-65
2023/09/12 00:50:50;;;;;;;20.13;7.88;;;18.10;99.90;;;;;;5056850;28;20420;-65
2023/09/12 00:53:16;;;;;;;15.80;9.10;;;18.20;99.90;;;;;;5050525;28;20042;-64
2023/09/12 00:55:49;;;;;;;16.67;8.25;;;18.20;99.90;;;;;;5055188;28;20048;-66
2023/09/12 00:58:15;;;;;;;12.15;7.60;;;18.10;99.90;;;;;;5049445;28;20037;-67
2023/09/12 01:00:41;;;;;;;14.65;7.45;;;18.10;99.90;;;;;;5043945;28;20044;-65
2023/09/12 01:03:07;;;;;;;;;;;18.10;99.90;;;;;;5028993;28;20052;-66
2023/09/12 01:05:33;;;;;;;17.30;7.53;;;18.00;99.90;;;;;;5032243;28;19921;-65
2023/09/12 01:08:00;;;;;;;15.57;7.95;;;18.00;99.90;;;;;;5033159;28;20105;-67
2023/09/12 01:10:26;;;;;;;13.63;8.25;;;18.00;99.90;;;;;;5028240;28;20471;-65
2023/09/12 01:12:52;;;;;;;19.45;7.88;;;18.00;99.90;;;;;;5025136;28;20116;-66
2023/09/12 01:15:18;;;;;;;15.52;7.45;;;17.90;99.90;;;;;;5026628;28;20037;-66
2023/09/12 01:17:44;;;;;;;;;;;17.90;99.90;;;;;;5035004;28;20037;-66
2023/09/12 01:20:33;;;;;;;19.27;7.70;;;17.90;99.90;;;;;;5030068;28;19917;-66
2023/09/12 01:23:34;;;;;;;16.58;7.97;;;17.90;99.90;;;;;;5034855;28;20041;-65
2023/09/12 01:26:31;;;;;;;15.63;7.45;;;17.90;99.90;;;;;;5021412;28;20528;-65
2023/09/12 01:28:59;;;;;;;23.45;8.10;;;17.90;99.90;;;;;;5025126;28;20049;-66
2023/09/12 01:31:25;;;;;;;14.18;7.93;;;17.90;99.90;;;;;;5024903;28;20042;-66
2023/09/12 01:33:56;;;;;;;16.02;7.50;;;17.90;99.90;;;;;;5029285;28;20037;-67
2023/09/12 01:36:21;;;;;;;13.95;7.18;;;17.90;99.90;;;;;;5024457;28;20045;-66
2023/09/12 01:38:47;;;;;;;;;;;17.90;99.90;;;;;;5024685;28;20536;-65
2023/09/12 01:41:13;;;;;;;16.83;7.57;;;17.90;99.90;;;;;;5023732;28;19986;-65
2023/09/12 01:43:40;;;;;;;14.05;6.85;;;18.00;99.90;;;;;;5025973;28;20049;-66
2023/09/12 01:46:06;;;;;;;21.35;9.40;;;18.00;99.90;;;;;;5030350;28;20665;-65
2023/09/12 01:48:35;;;;;;;13.27;7.53;;;18.00;99.90;;;;;;5026050;28;20038;-65
2023/09/12 01:51:01;;;;;;;16.35;8.80;;;18.00;99.90;;;;;;5021692;28;20112;-66
2023/09/12 01:53:28;;;;;;;15.18;7.30;;;18.00;99.90;;;;;;5026134;28;20041;-65
2023/09/12 01:55:56;;;;;;;15.77;8.45;;;18.00;99.90;;;;;;5024459;28;20532;-66
2023/09/12 01:58:24;;;;;;;18.05;7.75;;;18.00;99.90;;;;;;5031380;28;20061;-66
2023/09/12 02:00:50;;;;;;;13.95;8.15;;;17.90;99.90;;;;;;5021760;28;20519;-64
2023/09/12 02:03:15;;;;;;;;;;;18.00;99.90;;;;;;5027362;28;20029;-66
2023/09/12 02:05:41;;;;;;;27.35;8.68;;;17.90;99.90;;;;;;5023907;28;19925;-65
2023/09/12 02:08:07;;;;;;;;;;;17.90;99.90;;;;;;5026428;28;20861;-66
2023/09/12 02:10:32;;;;;;;13.32;7.95;;;17.90;99.90;;;;;;5031342;28;19917;-66
2023/09/12 02:12:58;;;;;;;12.00;8.60;;;17.90;99.90;;;;;;5028881;28;20091;-65
2023/09/12 02:15:23;;;;;;;;;;;18.00;99.90;;;;;;5022999;28;20398;-65
2023/09/12 02:17:52;;;;;;;10.75;6.95;;;18.00;99.90;;;;;;5041820;28;19953;-65
2023/09/12 02:20:18;;;;;;;18.52;9.25;;;18.00;99.90;;;;;;5019100;28;20038;-65
2023/09/12 02:22:45;;;;;;;14.38;7.95;;;18.00;99.90;;;;;;5026490;28;20453;-64
2023/09/12 02:25:10;;;;;;;14.20;7.78;;;18.00;99.90;;;;;;5024150;28;20056;-65
2023/09/12 02:27:36;;;;;;;;;;;18.00;99.90;;;;;;5026402;28;20505;-65
2023/09/12 02:30:02;;;;;;;21.92;8.45;;;17.90;99.90;;;;;;5015292;28;20373;-65
2023/09/12 02:32:28;;;;;;;16.08;8.57;;;17.90;99.90;;;;;;5029322;28;20045;-65
2023/09/12 02:34:56;;;;;;;;;;;18.00;99.90;;;;;;5031326;28;20041;-66
2023/09/12 02:37:22;;;;;;;19.10;8.07;;;18.00;99.90;;;;;;5031185;28;19924;-66
2023/09/12 02:39:47;;;;;;;;;;;18.00;99.90;;;;;;5022136;28;20037;-65
2023/09/12 02:42:13;;;;;;;14.27;8.15;;;17.90;99.90;;;;;;5029140;28;19924;-65
2023/09/12 02:44:38;;;;;;;;;;;17.90;99.90;;;;;;5021568;28;20052;-66
2023/09/12 02:47:05;;;;;;;17.80;8.90;;;17.90;99.90;;;;;;5029469;28;20286;-65
2023/09/12 02:49:30;;;;;;;19.90;8.90;;;17.80;99.90;;;;;;5022796;28;20053;-65
2023/09/12 02:51:56;;;;;;;;;;;17.90;99.90;;;;;;5031870;28;20075;-66
2023/09/12 02:54:22;;;;;;;13.68;7.00;;;17.90;99.90;;;;;;5030249;28;19960;-65
2023/09/12 02:56:47;;;;;;;16.92;7.72;;;17.90;99.90;;;;;;5022775;28;20037;-65
2023/09/12 02:59:13;;;;;;;;;;;17.80;99.90;;;;;;5024560;28;20125;-66
2023/09/12 03:01:38;;;;;;;13.80;7.75;;;17.80;99.90;;;;;;5026115;28;19967;-65
2023/09/12 03:04:04;;;;;;;15.05;9.07;;;17.80;99.90;;;;;;5026156;28;20029;-65
2023/09/12 03:06:30;;;;;;;21.15;9.10;;;17.80;99.90;;;;;;5025046;28;20505;-65
2023/09/12 03:08:56;;;;;;;15.32;8.43;;;17.80;99.90;;;;;;5031634;28;20121;-67
2023/09/12 03:11:21;;;;;;;;;;;17.80;99.90;;;;;;5029374;28;20038;-66
2023/09/12 03:13:47;;;;;;;16.08;8.25;;;17.80;99.90;;;;;;5025370;28;19917;-65
2023/09/12 03:16:15;;;;;;;17.17;8.98;;;17.80;99.90;;;;;;5020361;28;20037;-65
2023/09/12 03:18:41;;;;;;;15.07;8.77;;;17.80;99.90;;;;;;5023684;28;20516;-65
2023/09/12 03:21:07;;;;;;;15.15;8.85;;;17.70;99.90;;;;;;5042429;28;20041;-65
2023/09/12 03:23:33;;;;;;;11.52;8.73;;;17.70;99.90;;;;;;5038411;28;20037;-65
2023/09/12 03:26:03;;;;;;;;;;;17.70;99.90;;;;;;5023187;28;20067;-65
2023/09/12 03:28:29;;;;;;;15.48;8.48;;;17.70;99.90;;;;;;5024461;28;19925;-66
2023/09/12 03:31:03;;;;;;;;;;;17.70;99.90;;;;;;5027979;28;20223;-66
2023/09/12 03:33:28;;;;;;;13.43;8.73;;;17.70;99.90;;;;;;5026004;28;19999;-65
2023/09/12 03:35:54;;;;;;;;;;;17.70;99.90;;;;;;5028016;28;20065;-67
2023/09/12 03:38:19;;;;;;;13.10;9.18;;;17.70;99.90;;;;;;5022363;28;19921;-66
2023/09/12 03:40:45;;;;;;;;;;;17.70;99.90;;;;;;5022014;28;20041;-67
2023/09/12 03:43:10;;;;;;;12.57;8.10;;;17.70;99.90;;;;;;5023955;28;19928;-66
2023/09/12 03:45:37;;;;;;;14.93;7.97;;;17.70;99.90;;;;;;5021372;28;20422;-66
2023/09/12 03:48:03;;;;;;;13.82;8.65;;;17.70;99.90;;;;;;5025559;28;20062;-66
2023/09/12 03:50:28;;;;;;;;;;;17.70;99.90;;;;;;5022781;28;20069;-65
2023/09/12 03:52:54;;;;;;;17.35;8.73;;;17.70;99.90;;;;;;5027653;28;19913;-67
2023/09/12 03:55:20;;;;;;;18.73;9.25;;;17.70;99.90;;;;;;5024460;28;20097;-66
2023/09/12 03:57:45;;;;;;;15.40;9.02;;;17.70;99.90;;;;;;5031941;28;20038;-66
2023/09/12 04:00:12;;;;;;;16.58;9.05;;;17.70;99.90;;;;;;5042939;28;20556;-66
2023/09/12 04:02:38;;;;;;;17.35;10.18;;;17.70;99.90;;;;;;5052226;28;20148;-67
2023/09/12 04:05:03;;;;;;;;;;;17.80;99.90;;;;;;5051085;28;20764;-66
2023/09/12 04:07:29;;;;;;;27.30;18.42;;;17.80;99.90;;;;;;5048332;28;19920;-66
2023/09/12 04:09:54;;;;;;;;;;;17.90;99.90;;;;;;5046752;28;20041;-65
2023/09/12 04:12:20;;;;;;;23.33;11.85;;;17.90;99.90;;;;;;5045368;28;19917;-67
2023/09/12 04:14:45;;;;;;;15.68;10.00;;;17.90;99.90;;;;;;5046135;28;20500;-65
2023/09/12 04:17:11;;;;;;;;;;;17.80;99.90;;;;;;5047549;28;20520;-67
2023/09/12 04:19:36;;;;;;;19.60;11.20;;;17.80;99.90;;;;;;5047440;28;19924;-66
2023/09/12 04:22:04;;;;;;;20.48;13.15;;;17.80;99.90;;;;;;5045808;28;20067;-66
2023/09/12 04:24:29;;;;;;;20.42;13.32;;;17.80;99.90;;;;;;5047008;28;20048;-67
2023/09/12 04:26:55;;;;;;;;;;;17.80;99.90;;;;;;5051794;28;20445;-67
2023/09/12 04:29:21;;;;;;;20.77;10.85;;;17.80;99.90;;;;;;5049203;28;19916;-66
2023/09/12 04:31:46;;;;;;;;;;;17.90;99.90;;;;;;5043668;28;20504;-67
2023/09/12 04:34:12;;;;;;;32.33;23.95;;;17.80;99.90;;;;;;5048255;28;20408;-66
2023/09/12 04:36:37;;;;;;;24.75;18.35;;;17.80;99.90;;;;;;5043787;28;20033;-65
2023/09/12 04:39:03;;;;;;;19.45;12.40;;;17.80;99.90;;;;;;5050389;28;20500;-66
2023/09/12 04:41:28;;;;;;;;;;;17.80;99.90;;;;;;5044134;28;20064;-66
2023/09/12 04:43:54;;;;;;;18.92;9.48;;;17.80;99.90;;;;;;5049973;28;19923;-66
2023/09/12 04:46:19;;;;;;;19.65;10.27;;;17.80;99.90;;;;;;5044656;28;20099;-66
2023/09/12 04:48:45;;;;;;;;;;;17.80;99.90;;;;;;5046656;28;20444;-66
2023/09/12 04:51:10;;;;;;;29.77;17.73;;;17.80;99.90;;;;;;5043786;28;19923;-66
2023/09/12 04:53:36;;;;;;;29.75;16.83;;;17.80;99.90;;;;;;5042430;28;20675;-66
2023/09/12 04:56:02;;;;;;;25.83;16.98;;;17.80;99.90;;;;;;5044374;28;20036;-66
2023/09/12 04:58:28;;;;;;;23.27;16.77;;;17.80;99.90;;;;;;5044670;28;20049;-67
2023/09/12 05:00:54;;;;;;;;;;;17.80;99.90;;;;;;5043544;28;20526;-67
2023/09/12 05:03:20;;;;;;;31.77;17.02;;;17.80;99.90;;;;;;5048171;28;19917;-67
2023/09/12 05:05:46;;;;;;;;;;;17.80;99.90;;;;;;5050347;28;20040;-67
2023/09/12 05:08:12;;;;;;;25.08;16.35;;;17.80;99.90;;;;;;5050564;28;19944;-65
2023/09/12 05:10:38;;;;;;;;;;;17.80;99.90;;;;;;5041993;28;20508;-67
2023/09/12 05:13:05;;;;;;;30.13;17.40;;;17.90;99.90;;;;;;5048646;28;19920;-67
2023/09/12 05:15:30;;;;;;;30.40;18.58;;;17.90;99.90;;;;;;5042648;28;20152;-64
2023/09/12 05:17:56;;;;;;;;;;;17.90;99.90;;;;;;5038901;28;20128;-66
2023/09/12 05:20:21;;;;;;;29.88;18.83;;;17.90;99.90;;;;;;5038517;28;19960;-66
2023/09/12 05:22:47;;;;;;;;;;;17.90;99.90;;;;;;5050234;28;20503;-66
2023/09/12 05:25:12;;;;;;;24.80;16.88;;;17.90;99.90;;;;;;5039401;28;20372;-64
2023/09/12 05:27:38;;;;;;;22.02;15.68;;;17.90;99.90;;;;;;5040477;28;20156;-65
2023/09/12 05:30:04;;;;;;;21.92;15.25;;;17.90;99.90;;;;;;5044819;28;20045;-65
2023/09/12 05:32:30;;;;;;;23.98;15.55;;;17.90;99.90;;;;;;5043299;28;20583;-66
2023/09/12 05:34:56;;;;;;;24.90;17.38;;;18.00;99.90;;;;;;5045233;28;20048;-65
2023/09/12 05:37:22;;;;;;;;;;;18.00;99.90;;;;;;5043245;28;20420;-64
2023/09/12 05:39:47;;;;;;;20.50;14.05;;;18.00;99.90;;;;;;5042096;28;20455;-63
2023/09/12 05:42:14;;;;;;;;;;;18.00;99.90;;;;;;5047896;28;20106;-66
2023/09/12 05:44:42;;;;;;;22.13;15.05;;;18.10;99.90;;;;;;5043502;28;19916;-68
2023/09/12 05:47:08;;;;;;;25.70;16.50;;;18.10;99.90;;;;;;5040309;28;20056;-67
2023/09/12 05:49:34;;;;;;;;;;;18.00;99.90;;;;;;5040149;28;20103;-66
2023/09/12 05:51:59;;;;;;;25.42;15.38;;;18.10;99.90;;;;;;5041378;28;19927;-67
2023/09/12 05:54:25;;;;;;;;;;;18.10;99.90;;;;;;5045913;28;20083;-68
2023/09/12 05:56:53;;;;;;;20.75;15.32;;;18.10;99.90;;;;;;5040604;28;19923;-67
2023/09/12 05:59:18;;;;;;;24.75;16.52;;;18.10;99.90;;;;;;5043812;28;20056;-68
2023/09/12 06:01:45;;;;;;;;;;;18.10;99.90;;;;;;5045772;28;20044;-66
2023/09/12 06:04:10;;;;;;;24.85;15.52;;;18.10;99.90;;;;;;5043012;28;19923;-67
2023/09/12 06:06:36;;;;;;;;;;;18.10;99.90;;;;;;5045929;28;20424;-65
2023/09/12 06:09:03;;;;;;;20.33;14.25;;;18.10;99.90;;;;;;5043541;28;20504;-64
2023/09/12 06:11:29;;;;;;;20.10;13.93;;;18.10;99.90;;;;;;5046351;28;20691;-68
2023/09/12 06:13:54;;;;;;;;;;;18.20;99.90;;;;;;5045212;28;20087;-68
2023/09/12 06:16:20;;;;;;;18.75;13.68;;;18.10;99.90;;;;;;5053523;28;19920;-68
2023/09/12 06:18:48;;;;;;;;;;;18.20;99.90;;;;;;5058294;28;20049;-68
2023/09/12 06:21:14;;;;;;;25.83;18.63;;;18.20;99.90;;;;;;5046455;28;19948;-67
2023/09/12 06:23:39;;;;;;;29.75;19.92;;;18.20;99.90;;;;;;5043856;28;20045;-67
2023/09/12 06:26:05;;;;;;;;;;;18.30;99.90;;;;;;5046384;28;20044;-67
2023/09/12 06:28:31;;;;;;;29.45;18.67;;;18.40;99.90;;;;;;5045831;28;19963;-67
2023/09/12 06:30:58;;;;;;;30.48;19.70;;;18.40;99.90;;;;;;5041263;28;20110;-67
2023/09/12 06:33:25;;;;;;;25.95;19.50;;;18.50;99.90;;;;;;5040416;28;20128;-68
2023/09/12 06:35:52;;;;;;;29.13;19.90;;;18.60;99.90;;;;;;5047770;28;20386;-68
2023/09/12 06:38:19;;;;;;;31.23;20.58;;;18.80;99.90;;;;;;5047117;28;20109;-68
2023/09/12 06:40:47;;;;;;;34.67;21.23;;;18.90;99.90;;;;;;5046401;28;20033;-68
2023/09/12 06:43:12;;;;;;;31.17;20.30;;;19.00;99.90;;;;;;5042978;28;20038;-68
2023/09/12 06:45:38;;;;;;;;;;;19.10;99.90;;;;;;5047023;28;20048;-67
2023/09/12 06:48:04;;;;;;;24.60;18.05;;;19.20;99.90;;;;;;5046170;28;19916;-67
2023/09/12 06:50:30;;;;;;;27.17;19.40;;;19.20;99.90;;;;;;5041979;28;20119;-68
2023/09/12 06:52:55;;;;;;;;;;;19.20;99.90;;;;;;5047708;28;20116;-67
2023/09/12 06:55:21;;;;;;;24.73;19.55;;;19.30;99.90;;;;;;5040501;28;19916;-68
2023/09/12 06:57:47;;;;;;;24.35;18.33;;;19.30;99.90;;;;;;5045304;28;20520;-67
2023/09/12 07:00:13;;;;;;;42.78;18.42;;;19.30;99.90;;;;;;5043772;28;20041;-68
2023/09/12 07:02:39;;;;;;;25.13;18.10;;;19.30;99.90;;;;;;5044822;28;20052;-67
2023/09/12 07:05:05;;;;;;;;;;;19.20;99.90;;;;;;5043338;28;20060;-67
2023/09/12 07:07:31;;;;;;;24.25;18.40;;;19.20;99.90;;;;;;5039448;28;19921;-67
2023/09/12 07:09:56;;;;;;;30.08;20.40;;;19.20;99.90;;;;;;5039299;28;20041;-68
2023/09/12 07:12:22;;;;;;;;;;;19.30;99.90;;;;;;5044472;28;20033;-68
2023/09/12 07:14:50;;;;;;;29.77;19.95;;;19.30;99.90;;;;;;5047311;28;20376;-67
2023/09/12 07:17:17;;;;;;;36.75;24.10;;;19.40;99.90;;;;;;5048044;28;20452;-68
2023/09/12 07:19:43;;;;;;;30.17;20.77;;;19.40;99.90;;;;;;5040520;28;20064;-67
2023/09/12 07:22:08;;;;;;;;;;;19.50;99.90;;;;;;5034228;28;20073;-67
2023/09/12 07:24:34;;;;;;;30.30;20.77;;;19.50;99.90;;;;;;5043173;28;20681;-68
2023/09/12 07:27:00;;;;;;;27.20;20.90;;;19.60;99.90;;;;;;5045468;28;20041;-67
2023/09/12 07:29:26;;;;;;;27.50;23.23;;;19.60;99.90;;;;;;5048289;28;20053;-66
2023/09/12 07:31:52;;;;;;;;;;;19.50;99.90;;;;;;5047874;28;20404;-68
2023/09/12 07:34:18;;;;;;;36.03;22.58;;;19.40;99.90;;;;;;5050300;28;19999;-67
2023/09/12 07:36:43;;;;;;;36.45;22.63;;;19.50;99.90;;;;;;5051609;28;20108;-67
2023/09/12 07:39:09;;;;;;;36.65;23.17;;;19.50;99.90;;;;;;5047340;28;20094;-67
2023/09/12 07:41:34;;;;;;;38.15;23.60;;;19.50;99.90;;;;;;5050295;28;20057;-67
2023/09/12 07:44:01;;;;;;;34.40;22.48;;;19.70;99.90;;;;;;5046950;28;20459;-67
2023/09/12 07:46:27;;;;;;;35.22;24.10;;;19.80;99.90;;;;;;5049167;28;20063;-67
2023/09/12 07:48:52;;;;;;;;;;;20.00;99.90;;;;;;5050060;28;20060;-68
2023/09/12 07:51:18;;;;;;;30.27;22.38;;;20.00;99.90;;;;;;5050882;28;19916;-67
2023/09/12 07:53:44;;;;;;;28.10;20.83;;;20.00;99.90;;;;;;5045229;28;20053;-67
2023/09/12 07:56:10;;;;;;;28.88;20.30;;;20.00;99.90;;;;;;5049264;28;20457;-67
2023/09/12 07:58:36;;;;;;;30.70;20.10;;;20.10;99.90;;;;;;5047987;28;20051;-67
2023/09/12 08:01:06;;;;;;;27.52;19.70;;;20.10;99.90;;;;;;5047001;28;20128;-66
2023/09/12 08:03:33;;;;;;;30.67;21.35;;;20.10;99.90;;;;;;5044401;28;20127;-67
2023/09/12 08:05:59;;;;;;;28.75;19.50;;;20.20;99.90;;;;;;5048005;28;20061;-67
2023/09/12 08:08:25;;;;;;;29.00;20.73;;;20.40;99.90;;;;;;5049647;28;20186;-67
2023/09/12 08:10:50;;;;;;;29.85;19.13;;;20.50;99.90;;;;;;5038974;28;20046;-67
2023/09/12 08:13:16;;;;;;;28.77;19.33;;;20.50;99.90;;;;;;5049541;28;20036;-67
2023/09/12 08:15:42;;;;;;;27.50;17.17;;;20.50;99.90;;;;;;5047394;28;20044;-66
2023/09/12 08:18:07;;;;;;;29.88;17.77;;;20.50;99.90;;;;;;5048947;28;20036;-67
2023/09/12 08:20:33;;;;;;;22.98;15.57;;;20.60;99.90;;;;;;5046557;28;20116;-67
2023/09/12 08:22:59;;;;;;;28.95;15.98;;;20.80;99.90;;;;;;5048957;28;20032;-67
2023/09/12 08:25:24;;;;;;;23.13;15.05;;;21.30;99.90;;;;;;5049299;28;20473;-67
2023/09/12 08:27:50;;;;;;;20.63;13.63;;;22.00;99.90;;;;;;5046287;28;20226;-67
2023/09/12 08:30:16;;;;;;;26.75;14.40;;;22.80;99.90;;;;;;5042454;28;20112;-67
2023/09/12 08:32:45;;;;;;;22.98;14.13;;;22.70;99.90;;;;;;5050489;28;20048;-67
2023/09/12 08:35:12;;;;;;;20.65;13.25;;;22.40;99.90;;;;;;5042719;28;20032;-66
2023/09/12 08:37:40;;;;;;;24.35;15.73;;;22.10;99.90;;;;;;5047373;28;20048;-66
2023/09/12 08:40:08;;;;;;;25.65;14.80;;;21.80;99.90;;;;;;5050588;28;20573;-66
2023/09/12 08:42:41;;;;;;;21.38;14.10;;;21.50;99.90;;;;;;5046832;28;20041;-66
2023/09/12 08:45:17;;;;;;;23.70;14.85;;;21.40;99.90;;;;;;5043465;28;20045;-65
2023/09/12 08:47:44;;;;;;;25.05;15.60;;;21.30;99.90;;;;;;5042500;28;20880;-65
2023/09/12 08:50:15;;;;;;;25.70;14.23;;;21.30;99.90;;;;;;5045415;28;20033;-67
2023/09/12 08:52:42;;;;;;;25.40;13.25;;;21.20;99.90;;;;;;5047398;28;20041;-66
2023/09/12 08:55:08;;;;;;;19.67;13.30;;;21.20;99.90;;;;;;5047494;28;20511;-67
2023/09/12 08:57:37;;;;;;;24.52;13.57;;;21.10;99.90;;;;;;5048977;28;20496;-66
2023/09/12 09:00:06;;;;;;;25.45;13.82;;;21.00;99.90;;;;;;5050065;28;20053;-67
2023/09/12 09:02:33;;;;;;;26.27;12.85;;;21.00;99.90;;;;;;5051844;28;20064;-67
2023/09/12 09:05:01;;;;;;;16.98;11.75;;;20.90;99.90;;;;;;5045342;28;20041;-67
2023/09/12 09:07:28;;;;;;;22.13;11.23;;;20.90;99.90;;;;;;5046984;28;20103;-67
2023/09/12 09:09:55;;;;;;;19.65;11.32;;;20.90;99.90;;;;;;5047472;28;20056;-68
2023/09/12 09:12:21;;;;;;;23.02;10.68;;;21.00;99.90;;;;;;5051201;28;20037;-68
2023/09/12 09:14:47;;;;;;;22.13;11.07;;;21.00;99.90;;;;;;5049062;28;20190;-67
2023/09/12 09:17:13;;;;;;;19.98;10.98;;;21.00;99.90;;;;;;5042039;28;20040;-67
2023/09/12 09:19:43;;;;;;;18.27;10.63;;;21.10;99.90;;;;;;5046452;28;20036;-67
2023/09/12 09:22:09;;;;;;;17.50;10.43;;;21.40;99.90;;;;;;5050867;28;20427;-67
2023/09/12 09:24:35;;;;;;;22.35;11.40;;;21.60;99.90;;;;;;5038983;28;20148;-67
2023/09/12 09:27:00;;;;;;;24.42;12.18;;;21.70;99.90;;;;;;5047027;28;20049;-66
2023/09/12 09:29:31;;;;;;;23.42;12.82;;;21.70;99.90;;;;;;5042622;28;20417;-66
2023/09/12 09:32:00;;;;;;;20.20;12.30;;;21.50;99.90;;;;;;5045210;28;20041;-66
2023/09/12 09:34:31;;;;;;;19.13;13.05;;;21.40;99.90;;;;;;5046434;28;20674;-66
2023/09/12 09:36:57;;;;;;;14.88;10.38;;;21.40;99.90;;;;;;5046979;28;20096;-67
2023/09/12 09:39:25;;;;;;;18.48;12.40;;;21.40;99.90;;;;;;5046597;28;20095;-67
2023/09/12 09:41:56;;;;;;;19.67;11.32;;;21.40;99.90;;;;;;5048419;28;20067;-67
2023/09/12 09:44:26;;;;;;;20.63;10.63;;;21.30;99.90;;;;;;5048774;28;20041;-67
2023/09/12 09:46:55;;;;;;;16.30;11.13;;;21.30;99.90;;;;;;5046502;28;20079;-67
2023/09/12 09:49:21;;;;;;;22.75;13.82;;;21.30;99.90;;;;;;5048550;28;20500;-67
2023/09/12 09:51:47;;;;;;;17.77;10.60;;;21.20;99.90;;;;;;5046232;28;20132;-67
2023/09/12 09:54:14;;;;;;;28.58;12.85;;;21.30;99.90;;;;;;5050417;28;20041;-67
2023/09/12 09:56:53;;;;;;;19.40;11.93;;;21.50;99.90;;;;;;5047815;28;20052;-68
2023/09/12 09:59:23;;;;;;;19.90;13.65;;;21.40;99.90;;;;;;5044817;28;20037;-67
2023/09/12 10:01:51;;;;;;;22.88;12.63;;;21.30;99.90;;;;;;5044908;28;20045;-67
2023/09/12 10:04:18;;;;;;;22.13;12.18;;;21.40;99.90;;;;;;5043689;28;20079;-67
2023/09/12 10:06:45;;;;;;;17.77;12.48;;;21.50;99.90;;;;;;5045511;28;20044;-67
2023/09/12 10:09:13;;;;;;;21.15;13.32;;;21.50;99.90;;;;;;5049679;28;20125;-67
2023/09/12 10:11:41;;;;;;;17.88;12.07;;;21.70;99.90;;;;;;5048485;28;20674;-66
2023/09/12 10:14:07;;;;;;;19.52;12.57;;;21.70;99.90;;;;;;5047029;28;20053;-66
2023/09/12 10:16:35;;;;;;;19.70;12.38;;;21.90;99.90;;;;;;5048178;28;20451;-67
2023/09/12 10:19:20;;;;;;;22.33;12.57;;;22.00;99.90;;;;;;5046704;28;20048;-67
2023/09/12 10:22:11;;;;;;;23.90;14.13;;;22.20;99.90;;;;;;5046512;28;20053;-67
2023/09/12 10:24:40;;;;;;;23.80;15.10;;;22.20;99.90;;;;;;5043359;28;20057;-67
2023/09/12 10:27:06;;;;;;;25.15;13.65;;;22.30;99.90;;;;;;5045580;28;20565;-66
2023/09/12 10:29:32;;;;;;;22.77;12.20;;;22.50;99.90;;;;;;5046753;28;20391;-66
2023/09/12 10:31:58;;;;;;;21.35;12.30;;;22.40;99.90;;;;;;5048729;28;20139;-66
2023/09/12 10:34:25;;;;;;;28.48;12.70;;;22.50;99.90;;;;;;5046189;28;20128;-67
2023/09/12 10:36:52;;;;;;;27.83;13.63;;;22.60;99.90;;;;;;5046114;28;20521;-66
2023/09/12 10:39:19;;;;;;;19.27;13.40;;;22.40;99.90;;;;;;5045783;28;20559;-67
2023/09/12 10:41:46;;;;;;;18.50;12.63;;;22.20;99.90;;;;;;5045227;28;20052;-67
2023/09/12 10:44:17;;;;;;;20.85;13.68;;;22.00;99.90;;;;;;5046097;28;20122;-67
2023/09/12 10:46:44;;;;;;;18.23;12.15;;;21.90;99.90;;;;;;5045170;28;20048;-66
2023/09/12 10:49:14;;;;;;;17.42;12.70;;;21.80;99.90;;;;;;5045381;28;20249;-66
2023/09/12 10:51:41;;;;;;;23.42;13.75;;;21.80;99.90;;;;;;5041124;28;20037;-68
2023/09/12 10:54:08;;;;;;;12.18;8.98;;;21.90;99.90;;;;;;5043922;28;20579;-67
2023/09/12 10:56:35;;;;;;;16.20;8.93;;;22.00;99.90;;;;;;5047472;28;20529;-66
2023/09/12 10:59:06;;;;;;;18.25;7.93;;;22.10;99.90;;;;;;5046156;28;20045;-67
2023/09/12 11:01:33;;;;;;;18.05;8.65;;;22.10;99.90;;;;;;5044744;28;20408;-67
2023/09/12 11:04:17;;;;;;;11.95;8.38;;;22.10;99.90;;;;;;5045481;28;20041;-66
2023/09/12 11:06:43;;;;;;;15.15;8.40;;;22.10;99.90;;;;;;5048851;28;20107;-66
2023/09/12 11:09:22;;;;;;;12.07;8.40;;;21.90;99.90;;;;;;5044831;28;20101;-67
2023/09/12 11:11:49;;;;;;;15.88;7.95;;;21.70;99.90;;;;;;5047783;28;20493;-67
2023/09/12 11:14:16;;;;;;;11.15;7.57;;;21.70;99.90;;;;;;5043890;28;20044;-67
2023/09/12 11:16:43;;;;;;;12.32;8.82;;;21.70;99.90;;;;;;5046889;28;20113;-67
2023/09/12 11:19:20;;;;;;;11.75;7.82;;;21.70;99.90;;;;;;5044644;28;20045;-67
2023/09/12 11:21:47;;;;;;;15.52;7.35;;;21.70;99.90;;;;;;5046032;28;20130;-67
2023/09/12 11:24:14;;;;;;;10.98;8.88;;;21.70;99.90;;;;;;5045597;28;20095;-66
2023/09/12 11:27:00;;;;;;;13.13;7.45;;;21.70;99.90;;;;;;5044532;28;20041;-67
2023/09/12 11:29:42;;;;;;;14.93;7.63;;;21.70;99.90;;;;;;5044663;28;20076;-67
2023/09/12 11:32:09;;;;;;;10.20;6.93;;;21.70;99.90;;;;;;5042932;28;20424;-68
2023/09/12 11:34:41;;;;;;;13.23;7.38;;;21.80;99.90;;;;;;5045317;28;20496;-67
2023/09/12 11:37:07;;;;;;;12.15;6.32;;;21.80;99.90;;;;;;5044624;28;20041;-68
2023/09/12 11:39:33;;;;;;;11.35;6.05;;;21.70;99.90;;;;;;5046734;28;20107;-67
2023/09/12 11:42:01;;;;;;;14.60;6.72;;;21.60;99.90;;;;;;5044346;28;20595;-67
2023/09/12 11:44:27;;;;;;;8.98;6.05;;;21.50;99.90;;;;;;5043023;28;20135;-66
2023/09/12 11:46:54;;;;;;;9.23;5.95;;;21.60;99.90;;;;;;5043491;28;20056;-67
2023/09/12 11:49:20;;;;;;;10.05;6.28;;;21.70;99.90;;;;;;5045730;28;20041;-67
2023/09/12 11:51:54;;;;;;;7.25;5.55;;;21.90;99.90;;;;;;5044717;28;20040;-67
2023/09/12 11:54:24;;;;;;;10.65;5.85;;;22.10;99.90;;;;;;5046410;28;20045;-68
2023/09/12 11:56:56;;;;;;;11.00;6.85;;;22.30;99.90;;;;;;5043905;28;20055;-66
2023/09/12 11:59:23;;;;;;;9.13;5.55;;;22.20;99.90;;;;;;5044820;28;20073;-67
2023/09/12 12:01:49;;;;;;;11.27;5.80;;;22.40;99.90;;;;;;5042954;28;20064;-66
2023/09/12 12:04:14;;;;;;;11.88;6.20;;;22.40;99.90;;;;;;5044096;28;20088;-67
2023/09/12 12:06:41;;;;;;;9.45;5.60;;;22.40;99.90;;;;;;5042928;28;20061;-65
2023/09/12 12:09:06;;;;;;;12.48;7.22;;;22.10;99.90;;;;;;5040639;28;20041;-66
2023/09/12 12:11:32;;;;;;;10.48;8.25;;;22.00;99.90;;;;;;5043116;28;20044;-66
2023/09/12 12:13:58;;;;;;;11.70;6.28;;;22.10;99.90;;;;;;5044907;28;20455;-65
2023/09/12 12:16:25;;;;;;;13.18;6.88;;;22.30;99.90;;;;;;5045862;28;20511;-66
2023/09/12 12:18:55;;;;;;;8.70;5.07;;;22.20;99.90;;;;;;5048990;28;20072;-67
2023/09/12 12:21:21;;;;;;;10.00;6.35;;;22.20;99.90;;;;;;5046138;28;20068;-66
2023/09/12 12:23:56;;;;;;;8.07;5.22;;;22.30;99.90;;;;;;5045703;28;20036;-67
2023/09/12 12:26:24;;;;;;;13.60;6.60;;;22.50;99.90;;;;;;5045536;28;20578;-67
2023/09/12 12:28:49;;;;;;;9.02;6.57;;;22.50;99.90;;;;;;5046769;28;20122;-66
2023/09/12 12:31:15;;;;;;;9.20;5.93;;;22.60;99.90;;;;;;5044439;28;20501;-66
2023/09/12 12:33:48;;;;;;;13.32;6.80;;;22.60;99.90;;;;;;5043437;28;20836;-68
2023/09/12 12:36:13;;;;;;;13.00;7.15;;;22.60;99.90;;;;;;5039919;28;20049;-67
2023/09/12 12:38:39;;;;;;;10.25;6.32;;;22.60;99.90;;;;;;5038494;28;20033;-67
2023/09/12 12:42:07;;;;;;;;;;;;;;;;;;;;;
2023/09/12 12:44:54;;;;;;;8.55;5.88;;;22.70;99.90;;;;;;4990399;28;20053;-68
2023/09/12 12:47:21;;;;;;;9.27;5.53;;;22.60;99.90;;;;;;5049405;28;20045;-66
2023/09/12 12:53:50;;;;;;;13.45;7.13;;;22.60;99.90;;;;;;5009358;28;20518;-68